sensor_id;sensor_type;location;lat;lon;timestamp;P1;durP1;ratioP1;P2;durP2;ratioP2
6113;SDS011;3087;48.392;10.836;2022-12-31T00:01:04;2.10;;;1.60;;
6113;SDS011;3087;48.392;10.836;2022-12-31T00:03:33;1.60;;;1.50;;
6113;SDS011;3087;48.392;10.836;2022-12-31T00:05:58;1.85;;;1.75;;
6113;SDS011;3087;48.392;10.836;2022-12-31T00:08:24;2.15;;;1.70;;
6113;SDS011;3087;48.392;10.836;2022-12-31T00:10:50;1.70;;;1.60;;
6113;SDS011;3087;48.392;10.836;2022-12-31T00:13:15;1.88;;;1.77;;
6113;SDS011;3087;48.392;10.836;2022-12-31T00:15:42;2.10;;;1.88;;
6113;SDS011;3087;48.392;10.836;2022-12-31T00:18:08;3.75;;;1.90;;
6113;SDS011;3087;48.392;10.836;2022-12-31T00:20:37;1.92;;;1.77;;
6113;SDS011;3087;48.392;10.836;2022-12-31T00:23:04;1.90;;;1.80;;
6113;SDS011;3087;48.392;10.836;2022-12-31T00:25:30;1.70;;;1.60;;
6113;SDS011;3087;48.392;10.836;2022-12-31T00:27:55;5.72;;;4.15;;
6113;SDS011;3087;48.392;10.836;2022-12-31T00:30:21;2.08;;;1.75;;
6113;SDS011;3087;48.392;10.836;2022-12-31T00:32:46;1.73;;;1.63;;
6113;SDS011;3087;48.392;10.836;2022-12-31T00:35:12;1.92;;;1.70;;
6113;SDS011;3087;48.392;10.836;2022-12-31T00:37:38;2.25;;;1.95;;
6113;SDS011;3087;48.392;10.836;2022-12-31T00:40:03;2.88;;;2.40;;
6113;SDS011;3087;48.392;10.836;2022-12-31T00:42:29;1.80;;;1.70;;
6113;SDS011;3087;48.392;10.836;2022-12-31T00:44:55;2.30;;;1.92;;
6113;SDS011;3087;48.392;10.836;2022-12-31T00:47:20;1.98;;;1.60;;
6113;SDS011;3087;48.392;10.836;2022-12-31T00:49:48;2.03;;;1.73;;
6113;SDS011;3087;48.392;10.836;2022-12-31T00:52:14;1.92;;;1.70;;
6113;SDS011;3087;48.392;10.836;2022-12-31T00:54:40;1.88;;;1.73;;
6113;SDS011;3087;48.392;10.836;2022-12-31T00:57:06;1.50;;;1.35;;
6113;SDS011;3087;48.392;10.836;2022-12-31T00:59:32;1.50;;;1.40;;
6113;SDS011;3087;48.392;10.836;2022-12-31T01:01:57;1.30;;;1.20;;
6113;SDS011;3087;48.392;10.836;2022-12-31T01:04:23;1.50;;;1.40;;
6113;SDS011;3087;48.392;10.836;2022-12-31T01:06:48;1.85;;;1.55;;
6113;SDS011;3087;48.392;10.836;2022-12-31T01:09:14;2.65;;;2.20;;
6113;SDS011;3087;48.392;10.836;2022-12-31T01:11:41;2.10;;;1.90;;
6113;SDS011;3087;48.392;10.836;2022-12-31T01:14:08;1.60;;;1.50;;
6113;SDS011;3087;48.392;10.836;2022-12-31T01:16:37;1.85;;;1.50;;
6113;SDS011;3087;48.392;10.836;2022-12-31T01:19:06;2.13;;;1.45;;
6113;SDS011;3087;48.392;10.836;2022-12-31T01:21:34;1.80;;;1.70;;
6113;SDS011;3087;48.392;10.836;2022-12-31T01:24:01;1.70;;;1.40;;
6113;SDS011;3087;48.392;10.836;2022-12-31T01:26:27;1.52;;;1.40;;
6113;SDS011;3087;48.392;10.836;2022-12-31T01:28:53;1.58;;;1.40;;
6113;SDS011;3087;48.392;10.836;2022-12-31T01:31:19;1.50;;;1.40;;
6113;SDS011;3087;48.392;10.836;2022-12-31T01:33:46;1.52;;;1.42;;
6113;SDS011;3087;48.392;10.836;2022-12-31T01:36:23;1.38;;;1.27;;
6113;SDS011;3087;48.392;10.836;2022-12-31T01:38:51;1.70;;;1.38;;
6113;SDS011;3087;48.392;10.836;2022-12-31T01:41:19;1.70;;;1.50;;
6113;SDS011;3087;48.392;10.836;2022-12-31T01:46:12;1.70;;;1.60;;
6113;SDS011;3087;48.392;10.836;2022-12-31T01:48:50;1.67;;;1.48;;
6113;SDS011;3087;48.392;10.836;2022-12-31T01:51:18;1.75;;;1.50;;
6113;SDS011;3087;48.392;10.836;2022-12-31T01:53:44;1.98;;;1.45;;
6113;SDS011;3087;48.392;10.836;2022-12-31T01:56:11;2.22;;;1.58;;
6113;SDS011;3087;48.392;10.836;2022-12-31T01:58:41;2.15;;;1.65;;
6113;SDS011;3087;48.392;10.836;2022-12-31T02:01:10;1.50;;;1.40;;
6113;SDS011;3087;48.392;10.836;2022-12-31T02:03:41;2.90;;;1.40;;
6113;SDS011;3087;48.392;10.836;2022-12-31T02:06:12;1.65;;;1.50;;
6113;SDS011;3087;48.392;10.836;2022-12-31T02:08:42;3.17;;;1.50;;
6113;SDS011;3087;48.392;10.836;2022-12-31T02:14:11;2.28;;;1.30;;
6113;SDS011;3087;48.392;10.836;2022-12-31T02:25:20;1.50;;;1.40;;
6113;SDS011;3087;48.392;10.836;2022-12-31T02:30:26;1.75;;;1.65;;
6113;SDS011;3087;48.392;10.836;2022-12-31T02:33:58;2.78;;;1.40;;
6113;SDS011;3087;48.392;10.836;2022-12-31T02:36:01;2.28;;;1.70;;
6113;SDS011;3087;48.392;10.836;2022-12-31T02:38:34;2.65;;;1.65;;
6113;SDS011;3087;48.392;10.836;2022-12-31T02:41:02;1.48;;;1.38;;
6113;SDS011;3087;48.392;10.836;2022-12-31T02:43:28;1.98;;;1.33;;
6113;SDS011;3087;48.392;10.836;2022-12-31T02:51:11;1.42;;;1.33;;
6113;SDS011;3087;48.392;10.836;2022-12-31T02:53:55;1.73;;;1.50;;
6113;SDS011;3087;48.392;10.836;2022-12-31T02:59:36;2.38;;;1.30;;
6113;SDS011;3087;48.392;10.836;2022-12-31T03:02:31;1.45;;;1.35;;
6113;SDS011;3087;48.392;10.836;2022-12-31T03:04:59;1.70;;;1.60;;
6113;SDS011;3087;48.392;10.836;2022-12-31T03:07:30;1.52;;;1.42;;
6113;SDS011;3087;48.392;10.836;2022-12-31T03:09:56;1.98;;;1.88;;
6113;SDS011;3087;48.392;10.836;2022-12-31T03:12:25;1.50;;;1.40;;
6113;SDS011;3087;48.392;10.836;2022-12-31T03:17:47;1.80;;;1.60;;
6113;SDS011;3087;48.392;10.836;2022-12-31T03:20:14;1.60;;;1.50;;
6113;SDS011;3087;48.392;10.836;2022-12-31T03:22:59;1.65;;;1.55;;
6113;SDS011;3087;48.392;10.836;2022-12-31T03:25:24;1.58;;;1.48;;
6113;SDS011;3087;48.392;10.836;2022-12-31T03:28:09;1.67;;;1.30;;
6113;SDS011;3087;48.392;10.836;2022-12-31T03:30:37;1.70;;;1.60;;
6113;SDS011;3087;48.392;10.836;2022-12-31T03:33:05;1.60;;;1.50;;
6113;SDS011;3087;48.392;10.836;2022-12-31T03:35:32;2.03;;;1.42;;
6113;SDS011;3087;48.392;10.836;2022-12-31T03:37:59;1.40;;;1.30;;
6113;SDS011;3087;48.392;10.836;2022-12-31T03:40:27;1.65;;;1.55;;
6113;SDS011;3087;48.392;10.836;2022-12-31T03:42:54;1.35;;;1.20;;
6113;SDS011;3087;48.392;10.836;2022-12-31T03:45:20;1.70;;;1.50;;
6113;SDS011;3087;48.392;10.836;2022-12-31T03:47:47;1.90;;;1.50;;
6113;SDS011;3087;48.392;10.836;2022-12-31T03:50:13;1.70;;;1.50;;
6113;SDS011;3087;48.392;10.836;2022-12-31T03:52:41;2.45;;;1.40;;
6113;SDS011;3087;48.392;10.836;2022-12-31T03:55:08;2.10;;;1.48;;
6113;SDS011;3087;48.392;10.836;2022-12-31T03:57:34;1.75;;;1.42;;
6113;SDS011;3087;48.392;10.836;2022-12-31T04:00:00;1.83;;;1.73;;
6113;SDS011;3087;48.392;10.836;2022-12-31T04:02:26;1.95;;;1.60;;
6113;SDS011;3087;48.392;10.836;2022-12-31T04:04:51;1.65;;;1.50;;
6113;SDS011;3087;48.392;10.836;2022-12-31T04:07:17;1.55;;;1.38;;
6113;SDS011;3087;48.392;10.836;2022-12-31T04:09:43;2.00;;;1.30;;
6113;SDS011;3087;48.392;10.836;2022-12-31T04:12:08;2.53;;;1.23;;
6113;SDS011;3087;48.392;10.836;2022-12-31T04:14:34;2.03;;;1.70;;
6113;SDS011;3087;48.392;10.836;2022-12-31T04:16:59;4.22;;;1.67;;
6113;SDS011;3087;48.392;10.836;2022-12-31T04:19:25;1.45;;;1.35;;
6113;SDS011;3087;48.392;10.836;2022-12-31T04:21:50;1.45;;;1.35;;
6113;SDS011;3087;48.392;10.836;2022-12-31T04:24:16;1.60;;;1.50;;
6113;SDS011;3087;48.392;10.836;2022-12-31T04:26:42;2.20;;;1.55;;
6113;SDS011;3087;48.392;10.836;2022-12-31T04:29:08;1.33;;;1.23;;
6113;SDS011;3087;48.392;10.836;2022-12-31T04:31:34;1.60;;;1.50;;
6113;SDS011;3087;48.392;10.836;2022-12-31T04:33:59;1.50;;;1.40;;
6113;SDS011;3087;48.392;10.836;2022-12-31T04:36:25;1.30;;;1.20;;
6113;SDS011;3087;48.392;10.836;2022-12-31T04:38:51;1.55;;;1.42;;
6113;SDS011;3087;48.392;10.836;2022-12-31T04:41:16;1.35;;;1.25;;
6113;SDS011;3087;48.392;10.836;2022-12-31T04:43:46;1.33;;;1.23;;
6113;SDS011;3087;48.392;10.836;2022-12-31T04:46:13;1.55;;;1.45;;
6113;SDS011;3087;48.392;10.836;2022-12-31T04:48:40;1.27;;;1.17;;
6113;SDS011;3087;48.392;10.836;2022-12-31T04:51:05;1.30;;;1.20;;
6113;SDS011;3087;48.392;10.836;2022-12-31T04:53:31;1.77;;;1.20;;
6113;SDS011;3087;48.392;10.836;2022-12-31T04:55:56;1.02;;;1.02;;
6113;SDS011;3087;48.392;10.836;2022-12-31T04:58:22;1.98;;;1.30;;
6113;SDS011;3087;48.392;10.836;2022-12-31T05:00:49;1.10;;;1.00;;
6113;SDS011;3087;48.392;10.836;2022-12-31T05:03:19;2.10;;;1.42;;
6113;SDS011;3087;48.392;10.836;2022-12-31T05:05:46;1.50;;;1.40;;
6113;SDS011;3087;48.392;10.836;2022-12-31T05:08:12;1.42;;;1.33;;
6113;SDS011;3087;48.392;10.836;2022-12-31T05:10:47;1.50;;;1.40;;
6113;SDS011;3087;48.392;10.836;2022-12-31T05:13:13;2.15;;;1.20;;
6113;SDS011;3087;48.392;10.836;2022-12-31T05:15:39;1.30;;;1.20;;
6113;SDS011;3087;48.392;10.836;2022-12-31T05:18:05;2.03;;;1.40;;
6113;SDS011;3087;48.392;10.836;2022-12-31T05:20:32;1.40;;;1.30;;
6113;SDS011;3087;48.392;10.836;2022-12-31T05:22:57;1.40;;;1.30;;
6113;SDS011;3087;48.392;10.836;2022-12-31T05:25:23;1.30;;;1.20;;
6113;SDS011;3087;48.392;10.836;2022-12-31T05:27:49;1.52;;;1.30;;
6113;SDS011;3087;48.392;10.836;2022-12-31T05:30:15;1.38;;;1.27;;
6113;SDS011;3087;48.392;10.836;2022-12-31T05:32:42;1.63;;;1.30;;
6113;SDS011;3087;48.392;10.836;2022-12-31T05:35:08;1.52;;;1.42;;
6113;SDS011;3087;48.392;10.836;2022-12-31T05:37:34;0.98;;;0.98;;
6113;SDS011;3087;48.392;10.836;2022-12-31T05:39:59;1.60;;;1.50;;
6113;SDS011;3087;48.392;10.836;2022-12-31T05:42:25;1.50;;;1.40;;
6113;SDS011;3087;48.392;10.836;2022-12-31T05:44:51;2.20;;;2.00;;
6113;SDS011;3087;48.392;10.836;2022-12-31T05:47:17;1.60;;;1.50;;
6113;SDS011;3087;48.392;10.836;2022-12-31T05:49:42;4.20;;;1.63;;
6113;SDS011;3087;48.392;10.836;2022-12-31T05:52:08;1.50;;;1.40;;
6113;SDS011;3087;48.392;10.836;2022-12-31T05:54:34;1.73;;;1.38;;
6113;SDS011;3087;48.392;10.836;2022-12-31T05:57:00;3.08;;;1.60;;
6113;SDS011;3087;48.392;10.836;2022-12-31T05:59:27;1.40;;;1.30;;
6113;SDS011;3087;48.392;10.836;2022-12-31T06:01:52;1.70;;;1.60;;
6113;SDS011;3087;48.392;10.836;2022-12-31T06:04:18;1.40;;;1.30;;
6113;SDS011;3087;48.392;10.836;2022-12-31T06:06:43;1.40;;;1.30;;
6113;SDS011;3087;48.392;10.836;2022-12-31T06:09:09;1.73;;;1.35;;
6113;SDS011;3087;48.392;10.836;2022-12-31T06:11:35;1.40;;;1.30;;
6113;SDS011;3087;48.392;10.836;2022-12-31T06:14:00;1.55;;;1.30;;
6113;SDS011;3087;48.392;10.836;2022-12-31T06:16:26;1.25;;;1.15;;
6113;SDS011;3087;48.392;10.836;2022-12-31T06:18:52;1.50;;;1.40;;
6113;SDS011;3087;48.392;10.836;2022-12-31T06:21:18;1.40;;;1.30;;
6113;SDS011;3087;48.392;10.836;2022-12-31T06:23:45;1.33;;;1.20;;
6113;SDS011;3087;48.392;10.836;2022-12-31T06:26:12;1.35;;;1.25;;
6113;SDS011;3087;48.392;10.836;2022-12-31T06:28:38;1.10;;;0.98;;
6113;SDS011;3087;48.392;10.836;2022-12-31T06:31:05;1.55;;;1.45;;
6113;SDS011;3087;48.392;10.836;2022-12-31T06:33:31;2.00;;;1.85;;
6113;SDS011;3087;48.392;10.836;2022-12-31T06:35:58;1.33;;;1.23;;
6113;SDS011;3087;48.392;10.836;2022-12-31T06:38:26;1.90;;;1.30;;
6113;SDS011;3087;48.392;10.836;2022-12-31T06:40:53;1.00;;;1.00;;
6113;SDS011;3087;48.392;10.836;2022-12-31T06:43:19;1.33;;;1.23;;
6113;SDS011;3087;48.392;10.836;2022-12-31T06:45:45;1.50;;;1.40;;
6113;SDS011;3087;48.392;10.836;2022-12-31T06:48:10;1.60;;;1.27;;
6113;SDS011;3087;48.392;10.836;2022-12-31T06:50:36;1.35;;;1.00;;
6113;SDS011;3087;48.392;10.836;2022-12-31T06:53:02;1.40;;;1.20;;
6113;SDS011;3087;48.392;10.836;2022-12-31T06:55:28;1.15;;;1.05;;
6113;SDS011;3087;48.392;10.836;2022-12-31T06:57:54;1.30;;;1.20;;
6113;SDS011;3087;48.392;10.836;2022-12-31T07:00:20;1.70;;;1.58;;
6113;SDS011;3087;48.392;10.836;2022-12-31T07:05:35;1.30;;;1.20;;
6113;SDS011;3087;48.392;10.836;2022-12-31T07:11:02;1.42;;;1.30;;
6113;SDS011;3087;48.392;10.836;2022-12-31T07:18:59;2.85;;;1.40;;
6113;SDS011;3087;48.392;10.836;2022-12-31T07:21:46;1.42;;;1.33;;
6113;SDS011;3087;48.392;10.836;2022-12-31T07:24:15;1.30;;;1.20;;
6113;SDS011;3087;48.392;10.836;2022-12-31T07:37:38;1.27;;;1.17;;
6113;SDS011;3087;48.392;10.836;2022-12-31T07:46:48;1.42;;;1.33;;
6113;SDS011;3087;48.392;10.836;2022-12-31T07:49:10;1.58;;;1.30;;
6113;SDS011;3087;48.392;10.836;2022-12-31T07:51:37;1.60;;;1.40;;
6113;SDS011;3087;48.392;10.836;2022-12-31T07:54:03;1.75;;;1.25;;
6113;SDS011;3087;48.392;10.836;2022-12-31T07:56:29;2.28;;;1.50;;
6113;SDS011;3087;48.392;10.836;2022-12-31T08:01:55;1.40;;;1.30;;
6113;SDS011;3087;48.392;10.836;2022-12-31T08:04:47;1.65;;;1.55;;
6113;SDS011;3087;48.392;10.836;2022-12-31T08:07:23;1.60;;;1.45;;
6113;SDS011;3087;48.392;10.836;2022-12-31T08:12:35;1.30;;;1.20;;
6113;SDS011;3087;48.392;10.836;2022-12-31T08:15:10;1.30;;;1.20;;
6113;SDS011;3087;48.392;10.836;2022-12-31T08:17:40;1.27;;;1.17;;
6113;SDS011;3087;48.392;10.836;2022-12-31T08:20:06;1.90;;;1.80;;
6113;SDS011;3087;48.392;10.836;2022-12-31T08:28:49;1.83;;;1.48;;
6113;SDS011;3087;48.392;10.836;2022-12-31T08:31:24;1.85;;;1.25;;
6113;SDS011;3087;48.392;10.836;2022-12-31T08:33:54;1.35;;;1.10;;
6113;SDS011;3087;48.392;10.836;2022-12-31T08:36:31;1.52;;;1.40;;
6113;SDS011;3087;48.392;10.836;2022-12-31T08:41:57;1.38;;;1.27;;
6113;SDS011;3087;48.392;10.836;2022-12-31T08:49:50;2.38;;;1.88;;
6113;SDS011;3087;48.392;10.836;2022-12-31T08:52:20;1.92;;;1.73;;
6113;SDS011;3087;48.392;10.836;2022-12-31T08:54:48;3.55;;;2.28;;
6113;SDS011;3087;48.392;10.836;2022-12-31T09:02:43;1.80;;;1.70;;
6113;SDS011;3087;48.392;10.836;2022-12-31T09:10:53;2.00;;;1.80;;
6113;SDS011;3087;48.392;10.836;2022-12-31T09:13:47;2.63;;;2.13;;
6113;SDS011;3087;48.392;10.836;2022-12-31T09:16:31;3.40;;;3.10;;
6113;SDS011;3087;48.392;10.836;2022-12-31T09:19:19;1.92;;;1.73;;
6113;SDS011;3087;48.392;10.836;2022-12-31T09:21:45;1.40;;;1.30;;
6113;SDS011;3087;48.392;10.836;2022-12-31T09:24:12;2.22;;;1.95;;
6113;SDS011;3087;48.392;10.836;2022-12-31T09:35:18;2.22;;;1.90;;
6113;SDS011;3087;48.392;10.836;2022-12-31T09:37:54;2.55;;;2.10;;
6113;SDS011;3087;48.392;10.836;2022-12-31T09:49:10;2.13;;;1.92;;
6113;SDS011;3087;48.392;10.836;2022-12-31T09:57:40;2.28;;;2.08;;
6113;SDS011;3087;48.392;10.836;2022-12-31T10:03:09;2.40;;;2.20;;
6113;SDS011;3087;48.392;10.836;2022-12-31T10:08:56;2.28;;;1.90;;
6113;SDS011;3087;48.392;10.836;2022-12-31T10:14:17;2.38;;;2.17;;
6113;SDS011;3087;48.392;10.836;2022-12-31T10:31:58;2.15;;;1.95;;
6113;SDS011;3087;48.392;10.836;2022-12-31T10:37:17;2.72;;;2.45;;
6113;SDS011;3087;48.392;10.836;2022-12-31T10:42:30;2.42;;;2.13;;
6113;SDS011;3087;48.392;10.836;2022-12-31T11:10:15;3.05;;;2.53;;
6113;SDS011;3087;48.392;10.836;2022-12-31T11:21:26;5.07;;;2.60;;
6113;SDS011;3087;48.392;10.836;2022-12-31T11:35:27;2.33;;;1.92;;
6113;SDS011;3087;48.392;10.836;2022-12-31T11:41:02;2.22;;;1.80;;
6113;SDS011;3087;48.392;10.836;2022-12-31T11:43:38;2.58;;;2.30;;
6113;SDS011;3087;48.392;10.836;2022-12-31T11:46:46;2.25;;;1.98;;
6113;SDS011;3087;48.392;10.836;2022-12-31T11:49:34;1.90;;;1.70;;
6113;SDS011;3087;48.392;10.836;2022-12-31T11:59:58;2.33;;;2.13;;
6113;SDS011;3087;48.392;10.836;2022-12-31T12:02:36;2.92;;;2.03;;
6113;SDS011;3087;48.392;10.836;2022-12-31T12:05:08;1.98;;;1.60;;
6113;SDS011;3087;48.392;10.836;2022-12-31T12:07:38;1.85;;;1.67;;
6113;SDS011;3087;48.392;10.836;2022-12-31T12:10:16;2.55;;;2.25;;
6113;SDS011;3087;48.392;10.836;2022-12-31T12:12:52;2.38;;;2.05;;
6113;SDS011;3087;48.392;10.836;2022-12-31T12:15:21;1.50;;;1.40;;
6113;SDS011;3087;48.392;10.836;2022-12-31T12:17:59;1.90;;;1.70;;
6113;SDS011;3087;48.392;10.836;2022-12-31T12:20:48;1.92;;;1.73;;
6113;SDS011;3087;48.392;10.836;2022-12-31T12:23:15;4.28;;;1.92;;
6113;SDS011;3087;48.392;10.836;2022-12-31T12:25:48;5.13;;;2.20;;
6113;SDS011;3087;48.392;10.836;2022-12-31T12:30:43;1.90;;;1.70;;
6113;SDS011;3087;48.392;10.836;2022-12-31T12:33:23;1.63;;;1.50;;
6113;SDS011;3087;48.392;10.836;2022-12-31T12:35:49;2.72;;;2.35;;
6113;SDS011;3087;48.392;10.836;2022-12-31T12:40:51;2.58;;;2.13;;
6113;SDS011;3087;48.392;10.836;2022-12-31T12:43:22;1.75;;;1.52;;
6113;SDS011;3087;48.392;10.836;2022-12-31T12:45:51;2.72;;;1.75;;
6113;SDS011;3087;48.392;10.836;2022-12-31T12:48:39;2.83;;;2.53;;
6113;SDS011;3087;48.392;10.836;2022-12-31T12:51:19;2.47;;;2.28;;
6113;SDS011;3087;48.392;10.836;2022-12-31T12:53:51;4.15;;;2.92;;
6113;SDS011;3087;48.392;10.836;2022-12-31T13:10:50;2.40;;;2.10;;
6113;SDS011;3087;48.392;10.836;2022-12-31T13:18:46;2.58;;;2.10;;
6113;SDS011;3087;48.392;10.836;2022-12-31T13:29:47;3.63;;;2.85;;
6113;SDS011;3087;48.392;10.836;2022-12-31T13:32:16;2.55;;;2.03;;
6113;SDS011;3087;48.392;10.836;2022-12-31T13:34:46;2.30;;;2.03;;
6113;SDS011;3087;48.392;10.836;2022-12-31T13:37:30;6.70;;;2.20;;
6113;SDS011;3087;48.392;10.836;2022-12-31T13:43:14;2.65;;;1.85;;
6113;SDS011;3087;48.392;10.836;2022-12-31T13:45:51;2.55;;;2.20;;
6113;SDS011;3087;48.392;10.836;2022-12-31T13:48:27;2.33;;;2.08;;
6113;SDS011;3087;48.392;10.836;2022-12-31T13:51:00;2.30;;;1.98;;
6113;SDS011;3087;48.392;10.836;2022-12-31T13:53:35;2.33;;;2.00;;
6113;SDS011;3087;48.392;10.836;2022-12-31T13:56:17;4.32;;;2.80;;
6113;SDS011;3087;48.392;10.836;2022-12-31T13:58:49;3.13;;;2.63;;
6113;SDS011;3087;48.392;10.836;2022-12-31T14:01:36;3.13;;;2.38;;
6113;SDS011;3087;48.392;10.836;2022-12-31T14:04:27;2.65;;;2.25;;
6113;SDS011;3087;48.392;10.836;2022-12-31T14:09:32;2.60;;;2.28;;
6113;SDS011;3087;48.392;10.836;2022-12-31T14:12:02;2.30;;;2.10;;
6113;SDS011;3087;48.392;10.836;2022-12-31T14:20:41;2.40;;;2.20;;
6113;SDS011;3087;48.392;10.836;2022-12-31T14:23:16;4.47;;;3.00;;
6113;SDS011;3087;48.392;10.836;2022-12-31T14:26:03;2.97;;;2.65;;
6113;SDS011;3087;48.392;10.836;2022-12-31T14:28:37;3.53;;;2.75;;
6113;SDS011;3087;48.392;10.836;2022-12-31T14:34:24;2.28;;;2.03;;
6113;SDS011;3087;48.392;10.836;2022-12-31T14:48:30;2.58;;;2.20;;
6113;SDS011;3087;48.392;10.836;2022-12-31T14:51:06;2.70;;;2.40;;
6113;SDS011;3087;48.392;10.836;2022-12-31T14:53:33;3.95;;;2.03;;
6113;SDS011;3087;48.392;10.836;2022-12-31T14:56:00;3.25;;;2.58;;
6113;SDS011;3087;48.392;10.836;2022-12-31T14:58:37;2.70;;;2.30;;
6113;SDS011;3087;48.392;10.836;2022-12-31T15:01:05;11.82;;;6.78;;
6113;SDS011;3087;48.392;10.836;2022-12-31T15:03:46;5.07;;;3.95;;
6113;SDS011;3087;48.392;10.836;2022-12-31T15:22:49;5.28;;;2.33;;
6113;SDS011;3087;48.392;10.836;2022-12-31T15:25:32;3.35;;;2.58;;
6113;SDS011;3087;48.392;10.836;2022-12-31T15:28:03;4.93;;;2.58;;
6113;SDS011;3087;48.392;10.836;2022-12-31T15:30:38;3.53;;;2.95;;
6113;SDS011;3087;48.392;10.836;2022-12-31T15:33:19;3.88;;;2.90;;
6113;SDS011;3087;48.392;10.836;2022-12-31T15:35:54;4.28;;;3.40;;
6113;SDS011;3087;48.392;10.836;2022-12-31T15:38:34;4.45;;;3.30;;
6113;SDS011;3087;48.392;10.836;2022-12-31T15:41:11;3.42;;;3.00;;
6113;SDS011;3087;48.392;10.836;2022-12-31T15:46:18;3.03;;;2.70;;
6113;SDS011;3087;48.392;10.836;2022-12-31T15:48:48;4.35;;;3.20;;
6113;SDS011;3087;48.392;10.836;2022-12-31T15:51:24;3.45;;;2.70;;
6113;SDS011;3087;48.392;10.836;2022-12-31T15:54:15;3.33;;;3.03;;
6113;SDS011;3087;48.392;10.836;2022-12-31T15:56:49;3.38;;;3.00;;
6113;SDS011;3087;48.392;10.836;2022-12-31T15:59:16;6.45;;;4.65;;
6113;SDS011;3087;48.392;10.836;2022-12-31T16:01:44;4.80;;;3.75;;
6113;SDS011;3087;48.392;10.836;2022-12-31T16:04:13;5.85;;;3.47;;
6113;SDS011;3087;48.392;10.836;2022-12-31T16:07:05;6.30;;;4.00;;
6113;SDS011;3087;48.392;10.836;2022-12-31T16:09:31;5.28;;;3.80;;
6113;SDS011;3087;48.392;10.836;2022-12-31T16:11:58;3.60;;;3.20;;
6113;SDS011;3087;48.392;10.836;2022-12-31T16:17:02;3.50;;;3.03;;
6113;SDS011;3087;48.392;10.836;2022-12-31T16:19:40;3.92;;;3.50;;
6113;SDS011;3087;48.392;10.836;2022-12-31T16:22:17;4.05;;;3.45;;
6113;SDS011;3087;48.392;10.836;2022-12-31T16:24:58;4.75;;;3.72;;
6113;SDS011;3087;48.392;10.836;2022-12-31T16:27:25;5.78;;;3.33;;
6113;SDS011;3087;48.392;10.836;2022-12-31T16:29:59;4.78;;;3.85;;
6113;SDS011;3087;48.392;10.836;2022-12-31T16:32:26;4.68;;;3.88;;
6113;SDS011;3087;48.392;10.836;2022-12-31T16:35:24;6.97;;;4.85;;
6113;SDS011;3087;48.392;10.836;2022-12-31T16:40:36;9.18;;;6.85;;
6113;SDS011;3087;48.392;10.836;2022-12-31T16:43:02;8.65;;;6.18;;
6113;SDS011;3087;48.392;10.836;2022-12-31T16:45:35;18.02;;;12.77;;
6113;SDS011;3087;48.392;10.836;2022-12-31T16:48:16;16.85;;;11.38;;
6113;SDS011;3087;48.392;10.836;2022-12-31T16:50:47;15.73;;;12.43;;
6113;SDS011;3087;48.392;10.836;2022-12-31T16:53:17;13.32;;;10.02;;
6113;SDS011;3087;48.392;10.836;2022-12-31T16:55:52;9.35;;;7.28;;
6113;SDS011;3087;48.392;10.836;2022-12-31T16:58:27;12.20;;;6.82;;
6113;SDS011;3087;48.392;10.836;2022-12-31T17:01:20;8.85;;;7.00;;
6113;SDS011;3087;48.392;10.836;2022-12-31T17:03:51;9.10;;;6.45;;
6113;SDS011;3087;48.392;10.836;2022-12-31T17:06:24;19.25;;;11.52;;
6113;SDS011;3087;48.392;10.836;2022-12-31T17:13:59;20.63;;;15.75;;
6113;SDS011;3087;48.392;10.836;2022-12-31T17:16:31;32.63;;;27.60;;
6113;SDS011;3087;48.392;10.836;2022-12-31T17:19:02;37.05;;;30.02;;
6113;SDS011;3087;48.392;10.836;2022-12-31T17:21:28;35.70;;;31.30;;
6113;SDS011;3087;48.392;10.836;2022-12-31T17:23:56;29.80;;;25.42;;
6113;SDS011;3087;48.392;10.836;2022-12-31T17:26:30;22.92;;;17.98;;
6113;SDS011;3087;48.392;10.836;2022-12-31T17:28:58;21.27;;;16.25;;
6113;SDS011;3087;48.392;10.836;2022-12-31T17:36:37;17.30;;;11.95;;
6113;SDS011;3087;48.392;10.836;2022-12-31T17:39:17;16.73;;;10.75;;
6113;SDS011;3087;48.392;10.836;2022-12-31T17:41:45;16.55;;;10.75;;
6113;SDS011;3087;48.392;10.836;2022-12-31T17:44:22;15.18;;;10.90;;
6113;SDS011;3087;48.392;10.836;2022-12-31T17:46:53;20.10;;;13.63;;
6113;SDS011;3087;48.392;10.836;2022-12-31T17:49:20;23.00;;;13.35;;
6113;SDS011;3087;48.392;10.836;2022-12-31T17:51:51;23.30;;;15.15;;
6113;SDS011;3087;48.392;10.836;2022-12-31T17:54:17;30.17;;;17.35;;
6113;SDS011;3087;48.392;10.836;2022-12-31T17:56:43;25.60;;;17.08;;
6113;SDS011;3087;48.392;10.836;2022-12-31T17:59:30;19.33;;;12.32;;
6113;SDS011;3087;48.392;10.836;2022-12-31T18:01:58;20.67;;;14.27;;
6113;SDS011;3087;48.392;10.836;2022-12-31T18:04:26;15.73;;;12.30;;
6113;SDS011;3087;48.392;10.836;2022-12-31T18:06:52;17.00;;;11.50;;
6113;SDS011;3087;48.392;10.836;2022-12-31T18:09:17;14.20;;;11.02;;
6113;SDS011;3087;48.392;10.836;2022-12-31T18:11:43;23.17;;;17.77;;
6113;SDS011;3087;48.392;10.836;2022-12-31T18:14:12;16.23;;;11.27;;
6113;SDS011;3087;48.392;10.836;2022-12-31T18:16:38;14.73;;;11.23;;
6113;SDS011;3087;48.392;10.836;2022-12-31T18:19:04;13.10;;;9.65;;
6113;SDS011;3087;48.392;10.836;2022-12-31T18:21:36;13.25;;;9.82;;
6113;SDS011;3087;48.392;10.836;2022-12-31T18:24:02;13.40;;;8.05;;
6113;SDS011;3087;48.392;10.836;2022-12-31T18:26:29;9.05;;;5.65;;
6113;SDS011;3087;48.392;10.836;2022-12-31T18:28:57;5.85;;;4.50;;
6113;SDS011;3087;48.392;10.836;2022-12-31T18:31:27;7.75;;;4.47;;
6113;SDS011;3087;48.392;10.836;2022-12-31T18:33:54;34.13;;;23.73;;
6113;SDS011;3087;48.392;10.836;2022-12-31T18:36:21;14.88;;;9.82;;
6113;SDS011;3087;48.392;10.836;2022-12-31T18:38:48;7.88;;;5.57;;
6113;SDS011;3087;48.392;10.836;2022-12-31T18:41:23;6.20;;;4.72;;
6113;SDS011;3087;48.392;10.836;2022-12-31T18:43:51;8.73;;;3.75;;
6113;SDS011;3087;48.392;10.836;2022-12-31T18:46:18;5.10;;;3.30;;
6113;SDS011;3087;48.392;10.836;2022-12-31T18:48:45;5.22;;;4.10;;
6113;SDS011;3087;48.392;10.836;2022-12-31T18:51:15;4.38;;;3.38;;
6113;SDS011;3087;48.392;10.836;2022-12-31T18:53:43;5.40;;;4.15;;
6113;SDS011;3087;48.392;10.836;2022-12-31T18:56:10;8.70;;;6.07;;
6113;SDS011;3087;48.392;10.836;2022-12-31T18:58:37;7.68;;;5.47;;
6113;SDS011;3087;48.392;10.836;2022-12-31T19:01:04;6.88;;;4.80;;
6113;SDS011;3087;48.392;10.836;2022-12-31T19:03:29;8.02;;;5.97;;
6113;SDS011;3087;48.392;10.836;2022-12-31T19:05:55;8.10;;;6.38;;
6113;SDS011;3087;48.392;10.836;2022-12-31T19:08:21;7.10;;;5.38;;
6113;SDS011;3087;48.392;10.836;2022-12-31T19:10:48;7.95;;;5.95;;
6113;SDS011;3087;48.392;10.836;2022-12-31T19:13:16;8.30;;;5.53;;
6113;SDS011;3087;48.392;10.836;2022-12-31T19:15:52;12.38;;;10.30;;
6113;SDS011;3087;48.392;10.836;2022-12-31T19:18:19;12.00;;;9.95;;
6113;SDS011;3087;48.392;10.836;2022-12-31T19:20:45;12.23;;;9.82;;
6113;SDS011;3087;48.392;10.836;2022-12-31T19:23:14;11.60;;;9.65;;
6113;SDS011;3087;48.392;10.836;2022-12-31T19:25:42;13.00;;;9.40;;
6113;SDS011;3087;48.392;10.836;2022-12-31T19:28:15;13.50;;;10.32;;
6113;SDS011;3087;48.392;10.836;2022-12-31T19:30:43;11.82;;;10.20;;
6113;SDS011;3087;48.392;10.836;2022-12-31T19:33:09;11.32;;;9.52;;
6113;SDS011;3087;48.392;10.836;2022-12-31T19:35:35;13.48;;;10.48;;
6113;SDS011;3087;48.392;10.836;2022-12-31T19:38:02;13.32;;;10.32;;
6113;SDS011;3087;48.392;10.836;2022-12-31T19:40:29;13.30;;;11.07;;
6113;SDS011;3087;48.392;10.836;2022-12-31T19:42:55;14.38;;;11.55;;
6113;SDS011;3087;48.392;10.836;2022-12-31T19:47:48;16.45;;;12.02;;
6113;SDS011;3087;48.392;10.836;2022-12-31T19:50:15;20.42;;;12.38;;
6113;SDS011;3087;48.392;10.836;2022-12-31T19:52:43;14.68;;;10.40;;
6113;SDS011;3087;48.392;10.836;2022-12-31T19:55:11;17.08;;;11.18;;
6113;SDS011;3087;48.392;10.836;2022-12-31T19:57:38;15.50;;;11.20;;
6113;SDS011;3087;48.392;10.836;2022-12-31T20:00:05;15.32;;;11.73;;
6113;SDS011;3087;48.392;10.836;2022-12-31T20:02:31;14.30;;;9.95;;
6113;SDS011;3087;48.392;10.836;2022-12-31T20:04:57;50.38;;;33.58;;
6113;SDS011;3087;48.392;10.836;2022-12-31T20:07:22;52.15;;;39.00;;
6113;SDS011;3087;48.392;10.836;2022-12-31T20:09:48;36.90;;;27.45;;